Time;durP1;ratioP1;P1;durP2;ratioP2;P2;SDS_P1;SDS_P2;PMS_P1;PMS_P2;Temp;Humidity;BMP_temperature;BMP_pressure;BME280_temperature;BME280_humidity;BME280_pressure;Samples;Min_cycle;Max_cycle;Signal;HPM_P1;HPM_P2
2022/04/16 00:00:56;;;;;;;23.27;14.98;;;;;;;7.12;78.52;102844.22;5023148;28;20036;-86
2022/04/16 00:03:23;;;;;;;21.58;15.65;;;;;;;7.10;78.51;102853.94;5022868;28;20033;-85
2022/04/16 00:05:53;;;;;;;19.23;15.07;;;;;;;7.06;78.64;102841.59;5024734;28;20030;-86
2022/04/16 00:08:20;;;;;;;19.77;15.15;;;;;;;7.04;78.92;102846.03;5015287;28;20247;-86
2022/04/16 00:10:47;;;;;;;21.17;16.30;;;;;;;6.96;79.43;102844.28;5019868;28;20388;-86
2022/04/16 00:13:13;;;;;;;21.23;15.32;;;;;;;6.90;79.46;102840.81;5014940;28;20116;-86
2022/04/16 00:15:38;;;;;;;20.50;15.20;;;;;;;6.88;79.53;102838.13;5019199;28;20105;-85
2022/04/16 00:18:04;;;;;;;20.63;15.75;;;;;;;6.85;79.72;102839.91;5024747;28;20041;-86
2022/04/16 00:20:29;;;;;;;22.05;15.65;;;;;;;6.81;79.85;102833.75;5020213;28;20037;-86
2022/04/16 00:22:55;;;;;;;23.77;16.52;;;;;;;6.77;80.23;102837.28;5014996;28;20037;-86
2022/04/16 00:25:21;;;;;;;21.23;15.90;;;;;;;6.73;80.22;102828.50;5025118;28;20037;-86
2022/04/16 00:27:47;;;;;;;24.02;16.63;;;;;;;6.76;80.01;102840.81;5024999;28;20434;-86
2022/04/16 00:30:12;;;;;;;20.52;16.60;;;;;;;6.72;80.23;102833.78;5020834;28;20033;-86
2022/04/16 00:32:40;;;;;;;22.48;16.25;;;;;;;6.68;80.26;102832.91;5012407;28;20498;-86
2022/04/16 00:35:07;;;;;;;21.80;16.23;;;;;;;6.66;80.63;102834.69;5017811;28;20341;-85
2022/04/16 00:37:33;;;;;;;21.00;16.52;;;;;;;6.66;80.41;102834.69;5019118;28;20022;-85
2022/04/16 00:39:58;;;;;;;21.05;16.33;;;;;;;6.65;80.89;102840.88;5021395;28;20038;-85
2022/04/16 00:42:24;;;;;;;21.85;16.08;;;;;;;6.64;80.86;102839.09;5016266;28;20061;-86
2022/04/16 00:44:49;;;;;;;20.85;16.90;;;;;;;6.66;80.73;102837.34;5022233;28;20025;-86
2022/04/16 00:47:14;;;;;;;20.73;16.90;;;;;;;6.64;80.72;102838.22;5023815;28;20031;-86
2022/04/16 00:49:39;;;;;;;23.20;17.15;;;;;;;6.59;81.01;102837.34;5020926;28;20083;-86
2022/04/16 00:52:05;;;;;;;22.95;17.48;;;;;;;6.55;81.02;102840.88;5013081;28;20038;-86
2022/04/16 00:54:30;;;;;;;27.30;17.73;;;;;;;6.54;81.35;102844.44;5021179;28;20042;-86
2022/04/16 00:56:56;;;;;;;24.27;17.77;;;;;;;6.49;81.71;102837.38;5023192;28;20021;-85
2022/04/16 00:59:21;;;;;;;26.02;17.73;;;;;;;6.52;81.25;102835.59;5019232;28;20103;-85
2022/04/16 01:01:46;;;;;;;25.23;17.50;;;;;;;6.46;81.74;102833.84;5022898;28;20057;-85
2022/04/16 01:04:12;;;;;;;25.40;18.17;;;;;;;6.44;81.71;102833.88;5021891;28;20426;-85
2022/04/16 01:06:38;;;;;;;26.73;19.00;;;;;;;6.42;81.75;102834.75;5026539;28;20034;-85
2022/04/16 01:09:05;;;;;;;27.48;19.27;;;;;;;6.33;82.11;102830.34;5027693;28;20120;-85
2022/04/16 01:11:32;;;;;;;25.27;18.70;;;;;;;6.40;81.85;102841.81;5028591;28;20029;-85
2022/04/16 01:14:01;;;;;;;26.73;19.08;;;;;;;6.35;81.92;102839.16;5019605;28;20552;-85
2022/04/16 01:16:31;;;;;;;23.58;17.13;;;;;;;6.36;81.76;102843.56;5025020;28;20208;-86
2022/04/16 01:18:57;;;;;;;25.70;18.50;;;;;;;6.35;81.95;102851.50;5025173;28;20486;-85
2022/04/16 01:21:23;;;;;;;27.45;19.98;;;;;;;6.26;82.40;102838.28;5025640;28;20457;-86
2022/04/16 01:23:48;;;;;;;27.13;19.30;;;;;;;6.26;82.42;102848.88;5021256;28;20031;-85
2022/04/16 01:26:13;;;;;;;26.85;19.35;;;;;;;6.14;83.13;102845.34;5017335;28;20041;-86
2022/04/16 01:28:40;;;;;;;24.92;19.48;;;;;;;6.12;83.20;102848.88;5015343;28;20441;-86
2022/04/16 01:31:06;;;;;;;27.55;19.67;;;;;;;6.14;83.21;102860.31;5020092;28;20040;-86
2022/04/16 01:33:31;;;;;;;26.10;18.75;;;;;;;6.12;82.87;102854.16;5020844;28;20735;-86
2022/04/16 01:35:56;;;;;;;26.38;20.35;;;;;;;6.10;83.28;102851.50;5028941;28;20402;-85
2022/04/16 01:38:25;;;;;;;27.25;19.95;;;;;;;6.06;83.47;102862.09;5019411;28;20425;-86
2022/04/16 01:40:52;;;;;;;27.60;21.02;;;;;;;6.08;83.77;102870.91;5026187;28;20037;-85
2022/04/16 01:43:18;;;;;;;26.80;18.85;;;;;;;6.06;83.83;102864.72;5021759;28;20036;-86
2022/04/16 01:45:43;;;;;;;27.65;19.50;;;;;;;6.04;83.96;102863.88;5023310;28;20379;-86
2022/04/16 01:48:08;;;;;;;27.88;19.88;;;;;;;5.96;84.26;102851.50;5023230;28;20021;-86
2022/04/16 01:50:33;;;;;;;26.83;19.80;;;;;;;5.99;84.24;102863.88;5026549;28;20028;-86
2022/04/16 01:52:59;;;;;;;26.08;19.73;;;;;;;5.90;84.50;102850.63;5024611;28;20063;-86
2022/04/16 01:55:24;;;;;;;25.98;19.98;;;;;;;5.97;84.55;102866.47;5025834;28;20049;-85
2022/04/16 01:57:50;;;;;;;29.67;20.40;;;;;;;5.91;84.61;102850.59;5019102;28;20037;-85
2022/04/16 02:00:16;;;;;;;29.70;20.27;;;;;;;5.95;84.61;102860.34;5013738;28;20037;-86
2022/04/16 02:02:42;;;;;;;32.95;19.83;;;;;;;5.95;84.79;102860.34;5017989;28;20036;-86
2022/04/16 02:05:09;;;;;;;30.48;20.20;;;;;;;5.95;85.04;102862.09;5013233;28;20025;-85
2022/04/16 02:07:34;;;;;;;29.48;21.13;;;;;;;5.89;85.26;102851.47;5026463;28;20124;-85
2022/04/16 02:10:00;;;;;;;28.98;19.83;;;;;;;5.91;85.53;102866.47;5028573;28;20128;-85
2022/04/16 02:12:26;;;;;;;30.95;21.40;;;;;;;5.87;85.62;102859.41;5023148;28;20540;-86
2022/04/16 02:14:52;;;;;;;28.77;21.02;;;;;;;5.85;86.07;102861.19;5021056;28;20026;-86
2022/04/16 02:17:17;;;;;;;29.27;21.05;;;;;;;5.85;85.87;102857.63;5021423;28;20025;-85
2022/04/16 02:19:43;;;;;;;29.70;20.25;;;;;;;5.86;86.19;102860.31;5025394;28;20022;-85
2022/04/16 02:22:08;;;;;;;32.42;20.58;;;;;;;5.87;86.16;102856.78;5019540;28;20131;-86
2022/04/16 02:24:33;;;;;;;31.55;20.98;;;;;;;5.86;86.14;102859.41;5025160;28;20498;-85
2022/04/16 02:26:58;;;;;;;27.20;19.70;;;;;;;5.79;86.19;102847.06;5025752;28;20052;-85
2022/04/16 02:29:24;;;;;;;31.02;19.77;;;;;;;5.78;86.21;102851.47;5020898;28;20481;-85
2022/04/16 02:31:49;;;;;;;27.77;20.92;;;;;;;5.79;86.67;102855.88;5025230;28;20296;-86
2022/04/16 02:34:16;;;;;;;28.17;20.60;;;;;;;5.78;86.51;102859.41;5024492;28;20035;-86
2022/04/16 02:36:42;;;;;;;34.15;20.55;;;;;;;5.76;86.51;102869.06;5024685;28;20112;-85
2022/04/16 02:39:10;;;;;;;28.35;20.95;;;;;;;5.75;86.72;102859.41;5027034;28;20369;-85
2022/04/16 02:41:35;;;;;;;29.48;20.48;;;;;;;5.73;86.98;102875.25;5015783;28;20030;-86
2022/04/16 02:44:01;;;;;;;28.23;21.13;;;;;;;5.66;86.89;102868.19;5016445;28;20032;-85
2022/04/16 02:49:12;;;;;;;27.95;20.27;;;;;;;5.65;87.27;102876.13;5018472;28;20064;-85
2022/04/16 02:51:38;;;;;;;31.25;22.27;;;;;;;5.60;87.37;102872.56;5023739;28;20028;-86
2022/04/16 02:54:05;;;;;;;29.25;20.73;;;;;;;5.60;87.15;102880.50;5023285;28;20045;-85
2022/04/16 02:56:30;;;;;;;29.33;20.70;;;;;;;5.60;87.24;102881.41;5022353;28;20022;-85
2022/04/16 02:58:55;;;;;;;32.20;21.55;;;;;;;5.56;87.62;102876.09;5014148;28;20029;-85
2022/04/16 03:01:21;;;;;;;30.20;21.25;;;;;;;5.49;87.87;102873.44;5020183;28;20030;-86
2022/04/16 03:03:46;;;;;;;32.60;22.38;;;;;;;5.48;87.63;102884.88;5023567;28;20287;-86
2022/04/16 03:06:11;;;;;;;33.13;22.48;;;;;;;5.48;87.86;102889.28;5024818;28;20096;-86
2022/04/16 03:08:36;;;;;;;32.22;22.33;;;;;;;5.43;88.02;102888.38;5021832;28;20086;-86
2022/04/16 03:11:04;;;;;;;33.10;21.38;;;;;;;5.39;88.09;102882.22;5018683;28;20053;-86
2022/04/16 03:13:29;;;;;;;32.30;21.98;;;;;;;5.37;88.73;102888.38;5014428;28;20378;-86
2022/04/16 03:18:38;;;;;;;33.35;22.40;;;;;;;5.29;89.02;102888.34;5026942;28;20032;-87
2022/04/16 03:21:03;;;;;;;33.97;22.23;;;;;;;5.30;88.93;102894.50;5019994;28;20029;-86
2022/04/16 03:23:29;;;;;;;29.88;21.95;;;;;;;5.27;89.04;102881.28;5024022;28;20096;-86
2022/04/16 03:25:56;;;;;;;31.42;22.67;;;;;;;5.24;89.48;102890.97;5020625;28;20169;-87
2022/04/16 03:28:22;;;;;;;33.65;22.52;;;;;;;5.22;89.55;102886.53;5011421;28;20438;-87
2022/04/16 03:30:47;;;;;;;33.83;22.75;;;;;;;5.16;89.58;102884.75;5014781;28;20030;-87
2022/04/16 03:33:12;;;;;;;34.55;22.77;;;;;;;5.19;89.87;102897.09;5023447;28;20040;-86
2022/04/16 03:35:38;;;;;;;34.70;23.42;;;;;;;5.16;90.07;102897.97;5023474;28;20029;-85
2022/04/16 03:38:04;;;;;;;33.78;22.48;;;;;;;5.14;89.79;102890.91;5021349;28;20402;-85
2022/04/16 03:40:29;;;;;;;32.78;22.38;;;;;;;5.12;90.03;102898.81;5020359;28;20582;-86
2022/04/16 03:42:59;;;;;;;33.33;22.58;;;;;;;5.12;89.88;102897.94;5019676;28;20044;-85
2022/04/16 03:45:27;;;;;;;32.35;22.80;;;;;;;5.10;89.89;102903.22;5022705;28;20109;-85
2022/04/16 03:47:54;;;;;;;36.63;23.55;;;;;;;5.04;90.54;102897.03;5019242;28;20057;-86
2022/04/16 03:50:21;;;;;;;34.92;22.58;;;;;;;5.05;90.38;102896.16;5015277;28;20029;-85
2022/04/16 03:52:48;;;;;;;32.25;23.35;;;;;;;5.00;90.97;102902.28;5017486;28;20393;-85
2022/04/16 04:00:47;;;;;;;35.70;23.48;;;;;;;4.96;90.93;102896.97;5014656;28;20099;-87
2022/04/16 04:03:13;;;;;;;34.08;22.38;;;;;;;4.95;90.81;102898.75;5020540;28;20033;-86
2022/04/16 04:05:39;;;;;;;35.05;24.25;;;;;;;4.94;91.30;102906.66;5025066;28;20033;-86
2022/04/16 04:08:06;;;;;;;37.95;25.45;;;;;;;4.90;91.53;102910.16;5011632;28;20101;-87
2022/04/16 04:10:31;;;;;;;37.63;23.38;;;;;;;4.79;91.35;102893.38;5021923;28;20029;-85
2022/04/16 04:12:56;;;;;;;38.38;25.42;;;;;;;4.85;91.56;102904.84;5013350;28;20528;-86
2022/04/16 04:15:23;;;;;;;40.75;25.08;;;;;;;4.83;92.05;102901.31;5021857;28;20029;-86
2022/04/16 04:17:49;;;;;;;38.53;25.05;;;;;;;4.82;91.98;102903.94;5022339;28;20030;-86
2022/04/16 04:20:14;;;;;;;37.92;24.40;;;;;;;4.81;91.68;102905.72;5021527;28;20036;-86
2022/04/16 04:22:39;;;;;;;36.05;24.83;;;;;;;4.81;92.28;102904.81;5021830;28;20029;-87
2022/04/16 04:25:05;;;;;;;39.00;25.88;;;;;;;4.78;92.05;102915.38;5025607;28;20207;-87
2022/04/16 04:27:30;;;;;;;38.45;25.08;;;;;;;4.74;92.62;102920.59;5024960;28;20390;-86
2022/04/16 04:29:56;;;;;;;36.90;25.35;;;;;;;4.74;92.85;102917.97;5022983;28;20542;-87
2022/04/16 04:32:22;;;;;;;37.13;24.55;;;;;;;4.72;92.36;102917.09;5014572;28;20030;-86
2022/04/16 04:34:47;;;;;;;39.75;26.08;;;;;;;4.69;92.59;102917.06;5022858;28;20626;-86
2022/04/16 04:37:12;;;;;;;39.13;25.60;;;;;;;4.68;92.69;102927.59;5031621;28;20124;-86
2022/04/16 04:39:37;;;;;;;39.20;26.15;;;;;;;4.66;93.19;102937.25;5025694;28;20483;-86
2022/04/16 04:42:03;;;;;;;38.05;25.42;;;;;;;4.63;93.20;102934.59;5023049;28;21513;-86
2022/04/16 04:44:28;;;;;;;37.03;25.38;;;;;;;4.63;93.33;102937.22;5018695;28;20411;-87
2022/04/16 04:46:54;;;;;;;39.92;25.55;;;;;;;4.62;92.95;102935.47;5021581;28;20095;-85
2022/04/16 04:49:19;;;;;;;39.88;26.38;;;;;;;4.58;93.27;102942.47;5020670;28;20044;-85
2022/04/16 04:51:44;;;;;;;39.15;25.65;;;;;;;4.61;93.44;102939.88;5022179;28;20022;-86
2022/04/16 04:54:10;;;;;;;38.35;25.17;;;;;;;4.61;93.53;102944.25;5027998;28;20107;-85
2022/04/16 04:56:35;;;;;;;38.70;26.27;;;;;;;4.63;93.23;102950.41;5018084;28;20048;-85
2022/04/16 04:59:01;;;;;;;37.92;25.67;;;;;;;4.61;93.40;102950.41;5022738;28;20648;-85
2022/04/16 05:01:26;;;;;;;40.00;25.38;;;;;;;4.60;93.28;102947.75;5017687;28;20137;-86
2022/04/16 05:03:52;;;;;;;38.70;25.83;;;;;;;4.63;93.38;102964.47;5028567;28;21197;-86
2022/04/16 05:06:17;;;;;;;43.85;28.55;;;;;;;4.63;93.46;102955.69;5030007;28;20029;-86
2022/04/16 05:08:45;;;;;;;39.80;25.98;;;;;;;4.65;93.48;102961.88;5022570;28;20033;-87
2022/04/16 05:11:11;;;;;;;44.35;28.55;;;;;;;4.64;93.82;102962.72;5026487;28;20037;-86
2022/04/16 05:13:36;;;;;;;41.60;26.35;;;;;;;4.64;93.73;102960.09;5019050;28;20041;-85
2022/04/16 05:16:02;;;;;;;43.33;27.45;;;;;;;4.61;93.74;102954.81;5027965;28;20112;-85
2022/04/16 05:18:27;;;;;;;42.80;26.60;;;;;;;4.66;93.78;102963.63;5025561;28;20029;-86
2022/04/16 05:20:52;;;;;;;43.40;27.48;;;;;;;4.64;93.80;102960.09;5022518;28;20033;-85
2022/04/16 05:23:18;;;;;;;44.75;27.92;;;;;;;4.68;93.86;102967.16;5027090;28;20028;-86
2022/04/16 05:25:43;;;;;;;41.28;27.10;;;;;;;4.72;94.06;102966.31;5028721;28;20438;-86
2022/04/16 05:28:09;;;;;;;41.92;27.42;;;;;;;4.74;94.08;102972.50;5030052;28;20068;-86
2022/04/16 05:30:38;;;;;;;46.25;28.27;;;;;;;4.76;94.22;102965.44;5017262;28;20022;-86
2022/04/16 05:33:16;;;;;;;47.58;28.10;;;;;;;4.80;94.12;102974.28;5023111;28;20495;-86
2022/04/16 05:35:41;;;;;;;43.63;28.10;;;;;;;4.79;93.96;102970.75;5029397;28;20036;-86
2022/04/16 05:38:07;;;;;;;47.67;29.33;;;;;;;4.87;94.12;102976.97;5031453;28;20021;-86
2022/04/16 05:40:32;;;;;;;44.40;28.90;;;;;;;4.92;93.99;102977.88;5012980;28;20018;-86
2022/04/16 05:42:57;;;;;;;45.35;28.45;;;;;;;4.95;94.36;102971.75;5022181;28;20084;-86
2022/04/16 05:45:22;;;;;;;46.53;29.52;;;;;;;5.02;94.24;102975.31;5030273;28;20038;-86
2022/04/16 05:47:48;;;;;;;48.08;30.60;;;;;;;5.15;93.90;102975.41;5024794;28;20028;-86
2022/04/16 05:50:14;;;;;;;45.33;29.52;;;;;;;5.25;94.14;102979.84;5028127;28;20034;-86
2022/04/16 05:52:40;;;;;;;46.13;29.77;;;;;;;5.45;93.97;102979.94;5021157;28;20044;-86
2022/04/16 05:55:05;;;;;;;47.50;30.65;;;;;;;5.57;93.48;102976.50;5025524;28;20041;-86
2022/04/16 05:57:31;;;;;;;49.83;31.00;;;;;;;5.75;93.03;102986.22;5016248;28;20056;-86
2022/04/16 05:59:57;;;;;;;50.45;31.98;;;;;;;5.95;92.57;102988.97;5021016;28;20276;-86
2022/04/16 06:02:23;;;;;;;49.03;31.48;;;;;;;6.16;91.74;102986.38;5018662;28;20418;-86
2022/04/16 06:04:48;;;;;;;47.50;30.20;;;;;;;6.38;91.24;103000.50;5022119;28;20033;-86
2022/04/16 06:07:14;;;;;;;49.17;33.22;;;;;;;6.58;90.70;102999.63;5019322;28;20033;-86
2022/04/16 06:09:40;;;;;;;47.70;31.60;;;;;;;6.61;90.34;102991.72;5021516;28;21603;-86
2022/04/16 06:12:05;;;;;;;47.70;32.20;;;;;;;6.77;89.51;103006.66;5018150;28;20061;-85
2022/04/16 06:14:31;;;;;;;47.88;31.42;;;;;;;6.94;88.95;103006.69;5028307;28;20385;-85
2022/04/16 06:16:56;;;;;;;48.22;31.05;;;;;;;7.07;88.75;103010.19;5022813;28;20105;-85
2022/04/16 06:19:23;;;;;;;44.35;29.52;;;;;;;7.21;87.57;103016.34;5026204;28;20033;-85
2022/04/16 06:21:48;;;;;;;45.67;30.15;;;;;;;7.28;87.30;103010.16;5023079;28;20041;-85
2022/04/16 06:24:13;;;;;;;48.65;30.73;;;;;;;7.44;87.27;103016.25;5026744;28;20029;-85
2022/04/16 06:26:41;;;;;;;45.92;30.88;;;;;;;7.59;86.07;103024.16;5026595;28;20030;-85
2022/04/16 06:29:06;;;;;;;45.85;29.63;;;;;;;7.63;85.79;103006.50;5027071;28;20095;-85
2022/04/16 06:31:31;;;;;;;43.28;29.33;;;;;;;7.82;85.10;103017.91;5017433;28;20376;-85
2022/04/16 06:33:56;;;;;;;45.40;30.27;;;;;;;7.95;84.77;103017.84;5023608;28;20021;-86
2022/04/16 06:36:22;;;;;;;43.83;28.17;;;;;;;8.12;84.46;103027.47;5023557;28;20025;-87
2022/04/16 06:38:47;;;;;;;42.95;28.73;;;;;;;8.34;83.58;103029.09;5022192;28;20052;-87
2022/04/16 06:41:12;;;;;;;47.92;28.80;;;;;;;8.50;82.50;103032.56;5018712;28;20083;-86
2022/04/16 06:43:37;;;;;;;43.35;28.90;;;;;;;8.59;81.82;103028.94;5021330;28;20032;-87
2022/04/16 06:46:03;;;;;;;45.05;28.02;;;;;;;8.63;81.11;103017.41;5024062;28;20467;-86
2022/04/16 06:48:28;;;;;;;37.22;26.50;;;;;;;8.71;81.00;103020.88;5024236;28;20026;-86
2022/04/16 06:50:54;;;;;;;42.00;27.67;;;;;;;8.74;81.22;103012.91;5018606;28;20045;-86
2022/04/16 06:53:19;;;;;;;44.13;27.73;;;;;;;8.97;80.26;103016.22;5026854;28;20037;-83
2022/04/16 06:55:44;;;;;;;41.28;27.60;;;;;;;9.25;80.09;103015.94;5027960;28;20065;-87
2022/04/16 06:58:09;;;;;;;39.85;27.40;;;;;;;9.32;78.67;103025.63;5027663;28;20379;-87
2022/04/16 07:00:35;;;;;;;42.05;27.95;;;;;;;9.53;78.65;103010.31;5020708;28;20542;-88
2022/04/16 07:03:00;;;;;;;39.85;26.55;;;;;;;9.86;78.07;103022.28;5022408;28;20021;-88
2022/04/16 07:05:25;;;;;;;40.08;26.88;;;;;;;10.08;75.98;103020.25;5027548;28;20029;-87
2022/04/16 07:07:50;;;;;;;36.90;25.27;;;;;;;10.19;74.97;103016.50;5024819;28;20017;-87
2022/04/16 07:10:16;;;;;;;35.38;24.40;;;;;;;10.40;74.06;103020.66;5018880;28;20489;-88
2022/04/16 07:12:41;;;;;;;36.50;23.48;;;;;;;10.52;74.00;103000.97;5021531;28;20463;-87
2022/04/16 07:15:07;;;;;;;32.45;23.90;;;;;;;10.76;72.48;103018.31;5020991;28;20079;-87
2022/04/16 07:17:32;;;;;;;34.60;25.00;;;;;;;11.09;71.31;103014.19;5023523;28;20029;-86
2022/04/16 07:19:57;;;;;;;35.45;23.58;;;;;;;11.39;71.36;103017.16;5025386;28;20033;-86
2022/04/16 07:22:23;;;;;;;35.60;24.20;;;;;;;11.54;69.32;103021.34;5016597;28;20130;-85
2022/04/16 07:24:49;;;;;;;31.73;23.30;;;;;;;11.75;68.69;103033.34;5022185;28;20021;-86
2022/04/16 07:27:15;;;;;;;35.85;23.92;;;;;;;11.91;67.89;103027.69;5021432;28;20080;-87
2022/04/16 07:29:40;;;;;;;34.65;23.38;;;;;;;12.12;67.23;103036.09;5022920;28;20025;-86
2022/04/16 07:32:06;;;;;;;29.75;21.98;;;;;;;12.15;65.94;103022.69;5014928;28;20040;-85
2022/04/16 07:34:32;;;;;;;32.40;22.65;;;;;;;12.34;65.38;103025.84;5025365;28;20494;-85
2022/04/16 07:36:57;;;;;;;31.30;22.70;;;;;;;12.57;65.43;103039.50;5019505;28;20032;-86
2022/04/16 07:39:22;;;;;;;31.92;23.23;;;;;;;12.81;63.81;103032.69;5020495;28;20486;-86
2022/04/16 07:41:51;;;;;;;34.28;23.70;;;;;;;12.95;63.03;103035.88;5013913;28;20033;-84
2022/04/16 07:44:17;;;;;;;30.40;22.52;;;;;;;13.05;62.82;103033.84;5022225;28;20032;-83
2022/04/16 07:46:42;;;;;;;32.63;21.98;;;;;;;13.39;61.85;103024.94;5020254;28;20029;-85
2022/04/16 07:49:07;;;;;;;31.48;22.90;;;;;;;13.92;61.27;103035.91;5019969;28;20367;-85
2022/04/16 07:51:32;;;;;;;29.50;21.63;;;;;;;14.11;59.13;103029.03;5019722;28;20052;-84
2022/04/16 07:53:58;;;;;;;35.53;23.08;;;;;;;14.54;58.40;103034.88;5022083;28;20514;-85
2022/04/16 07:56:24;;;;;;;32.05;22.05;;;;;;;14.95;57.02;103033.47;5024416;28;20285;-85
2022/04/16 07:58:50;;;;;;;29.15;20.45;;;;;;;15.44;56.20;103031.75;5023715;28;20364;-85
2022/04/16 08:01:15;;;;;;;26.95;19.70;;;;;;;15.70;54.02;103028.13;5023524;28;20036;-84
2022/04/16 08:03:41;;;;;;;24.92;18.90;;;;;;;15.96;52.19;103023.56;5022492;28;20033;-85
2022/04/16 08:06:06;;;;;;;26.25;19.08;;;;;;;15.77;51.14;103031.47;5023893;28;20033;-86
2022/04/16 08:08:32;;;;;;;24.77;18.52;;;;;;;15.84;51.80;103030.28;5021613;28;20475;-86
2022/04/16 08:10:57;;;;;;;23.80;18.20;;;;;;;16.14;50.70;103036.28;5020417;28;20162;-86
2022/04/16 08:13:23;;;;;;;25.08;18.35;;;;;;;16.25;50.17;103038.53;5024215;28;20029;-86
2022/04/16 08:15:48;;;;;;;23.08;17.48;;;;;;;16.60;49.66;103045.19;5024080;28;20041;-86
2022/04/16 08:18:14;;;;;;;23.88;17.75;;;;;;;16.66;49.55;103028.78;5024362;28;20398;-85
2022/04/16 08:20:40;;;;;;;22.95;17.35;;;;;;;17.28;47.69;103019.84;5019600;28;20112;-86
2022/04/16 08:23:06;;;;;;;23.13;16.98;;;;;;;17.56;46.21;103030.25;5025802;28;20064;-86
2022/04/16 08:28:02;;;;;;;22.15;16.40;;;;;;;17.84;45.69;103037.94;5016330;28;20037;-86
2022/04/16 08:30:28;;;;;;;22.20;17.20;;;;;;;18.03;44.99;103037.09;5020659;28;20116;-86
2022/04/16 08:32:54;;;;;;;22.13;17.23;;;;;;;18.19;44.22;103032.72;5019892;28;20104;-87
2022/04/16 08:35:19;;;;;;;21.33;16.85;;;;;;;18.49;44.11;103038.44;5021494;28;20120;-87
2022/04/16 08:37:46;;;;;;;21.52;16.92;;;;;;;19.17;43.04;103038.59;5020461;28;20017;-85
2022/04/16 08:40:13;;;;;;;21.35;16.55;;;;;;;19.36;40.81;103033.97;5024035;28;20069;-87
2022/04/16 08:42:40;;;;;;;20.05;16.58;;;;;;;19.32;41.41;103043.19;5016436;28;20068;-86
2022/04/16 08:45:08;;;;;;;19.60;15.50;;;;;;;19.65;40.38;103043.25;5016423;28;20135;-86
2022/04/16 08:47:34;;;;;;;20.67;14.75;;;;;;;20.25;40.17;103049.84;5020032;28;20040;-85
2022/04/16 08:50:00;;;;;;;20.90;16.00;;;;;;;20.89;38.17;103044.28;5020600;28;20021;-87
2022/04/16 08:52:31;;;;;;;17.52;14.38;;;;;;;21.44;37.99;103039.19;5018378;28;20525;-87
2022/04/16 08:55:01;;;;;;;16.77;14.30;;;;;;;21.73;36.54;103048.22;5019852;28;20409;-87
2022/04/16 08:57:26;;;;;;;17.48;14.55;;;;;;;21.38;35.39;103038.63;5024220;28;20139;-88
2022/04/16 08:59:53;;;;;;;19.27;15.65;;;;;;;21.46;35.75;103034.56;5022170;28;20435;-87
2022/04/16 09:02:19;;;;;;;16.73;13.52;;;;;;;21.68;35.66;103034.94;5024574;28;20030;-87
2022/04/16 09:04:46;;;;;;;19.85;14.43;;;;;;;21.90;34.71;103037.16;5025116;28;20021;-86
2022/04/16 09:07:12;;;;;;;17.40;14.35;;;;;;;22.30;33.90;103038.19;5021288;28;20095;-88
2022/04/16 09:09:38;;;;;;;17.83;13.32;;;;;;;22.42;33.82;103035.66;5022297;28;20026;-86
2022/04/16 09:12:14;;;;;;;14.32;12.68;;;;;;;22.50;32.72;103034.16;5019346;28;20675;-87
2022/04/16 09:14:43;;;;;;;16.25;13.35;;;;;;;22.19;33.95;103034.44;5017088;28;20033;-85
2022/04/16 09:17:10;;;;;;;16.88;13.75;;;;;;;22.82;32.95;103034.72;5018498;28;20490;-85
2022/04/16 09:19:35;;;;;;;16.33;12.98;;;;;;;23.48;31.91;103031.97;5020969;28;20029;-85
2022/04/16 09:22:00;;;;;;;13.57;11.60;;;;;;;23.43;30.58;103034.16;5023084;28;20033;-86
2022/04/16 09:24:26;;;;;;;14.85;12.18;;;;;;;23.56;31.03;103032.28;5021146;28;20033;-85
2022/04/16 09:26:51;;;;;;;13.45;10.88;;;;;;;24.30;29.70;103039.56;5029278;28;20025;-85
2022/04/16 09:29:18;;;;;;;14.02;10.88;;;;;;;24.69;28.81;103042.13;5024749;28;20395;-84
2022/04/16 09:31:49;;;;;;;13.18;11.50;;;;;;;24.96;29.29;103033.72;5024481;28;20017;-86
2022/04/16 09:34:23;;;;;;;13.63;11.02;;;;;;;25.28;28.86;103032.06;5023330;28;20029;-85
2022/04/16 09:36:50;;;;;;;16.02;11.20;;;;;;;25.24;27.83;103038.75;5024060;28;20029;-87
2022/04/16 09:39:16;;;;;;;11.57;10.05;;;;;;;25.54;27.43;103034.56;5026445;28;20037;-86
2022/04/16 09:41:46;;;;;;;12.45;9.40;;;;;;;25.72;26.19;103038.56;5014170;28;20038;-86
2022/04/16 09:44:21;;;;;;;10.10;8.95;;;;;;;25.71;26.89;103036.84;5022727;28;20033;-87
2022/04/16 09:46:48;;;;;;;10.95;9.55;;;;;;;26.25;25.50;103024.25;5027334;28;20064;-87
2022/04/16 09:49:16;;;;;;;11.35;9.38;;;;;;;27.19;24.89;103028.97;5025593;28;20034;-88
2022/04/16 09:51:43;;;;;;;10.88;9.48;;;;;;;27.09;24.56;103033.50;5027285;28;20200;-88
2022/04/16 09:54:11;;;;;;;12.25;9.95;;;;;;;24.71;26.62;103032.88;5027188;28;20524;-88
2022/04/16 09:56:39;;;;;;;9.35;8.32;;;;;;;24.38;27.32;103040.88;5025118;28;20042;-89
2022/04/16 09:59:06;;;;;;;7.38;6.68;;;;;;;25.46;25.02;103026.16;5021594;28;20026;-88
2022/04/16 10:01:33;;;;;;;8.82;6.90;;;;;;;25.74;24.45;103031.09;5013584;28;20039;-88
2022/04/16 10:04:02;;;;;;;8.63;7.68;;;;;;;25.93;24.95;103027.78;5017490;28;20463;-87
2022/04/16 10:06:30;;;;;;;7.95;7.15;;;;;;;24.96;25.11;103020.09;5016713;28;20453;-87
2022/04/16 10:09:13;;;;;;;7.65;6.82;;;;;;;25.08;25.82;103027.28;5025141;28;20514;-88
2022/04/16 10:14:37;;;;;;;8.35;7.53;;;;;;;26.36;23.74;103023.34;5028428;28;20043;-88
2022/04/16 10:17:07;;;;;;;8.15;6.88;;;;;;;26.29;24.11;103015.69;5028983;28;20387;-87
2022/04/16 10:19:37;;;;;;;8.52;7.32;;;;;;;27.05;23.07;103021.09;5019425;28;20052;-86
2022/04/16 10:22:03;;;;;;;7.18;6.47;;;;;;;27.09;22.26;103008.91;5024527;28;20029;-87
2022/04/16 10:24:28;;;;;;;6.65;5.65;;;;;;;27.56;22.25;103017.53;5020122;28;20061;-87
2022/04/16 10:27:04;;;;;;;6.00;5.40;;;;;;;27.58;21.90;103007.31;5022636;28;20097;-89
2022/04/16 10:29:39;;;;;;;7.10;6.40;;;;;;;28.09;21.91;103017.28;5021987;28;20041;-93
2022/04/16 10:32:17;;;;;;;7.07;6.38;;;;;;;28.33;22.37;103014.16;5027649;28;20791;-89
2022/04/16 10:34:43;;;;;;;5.65;5.07;;;;;;;27.95;20.80;103017.69;5023036;28;20059;-90
2022/04/16 10:37:20;;;;;;;6.10;5.50;;;;;;;27.71;21.45;103010.66;5017830;28;20037;-89
2022/04/16 10:39:46;;;;;;;6.50;5.80;;;;;;;27.43;21.71;103005.97;5023961;28;20056;-93
2022/04/16 10:42:11;;;;;;;6.75;5.82;;;;;;;27.41;22.19;103005.22;5027070;28;20033;-91
2022/04/16 10:44:47;;;;;;;6.07;4.90;;;;;;;27.59;22.25;102998.13;5029107;28;20117;-92
2022/04/16 10:47:20;;;;;;;5.85;4.80;;;;;;;28.02;21.75;103010.66;5027639;28;20036;-90
2022/04/16 10:49:45;;;;;;;;;;;;;;;29.14;19.70;103012.03;5027788;28;20398;-90
2022/04/16 10:52:21;;;;;;;5.23;4.43;;;;;;;27.77;21.83;103012.03;5026737;28;19921;-90
2022/04/16 10:54:47;;;;;;;7.00;5.15;;;;;;;27.20;21.08;103016.19;5015416;28;20303;-88
2022/04/16 10:57:20;;;;;;;4.70;4.30;;;;;;;26.75;21.94;103020.03;5024481;28;20152;-90
2022/04/16 10:59:45;;;;;;;5.97;4.88;;;;;;;25.89;22.32;103015.41;5021360;28;20087;-90
2022/04/16 11:02:19;;;;;;;6.35;4.95;;;;;;;26.14;22.12;103010.66;5027761;28;20486;-90
2022/04/16 11:04:57;;;;;;;6.13;5.45;;;;;;;26.61;22.70;103011.25;5026844;28;20033;-90
2022/04/16 11:07:23;;;;;;;6.53;5.75;;;;;;;27.14;21.81;103011.25;5019803;28;20061;-90
2022/04/16 11:09:51;;;;;;;6.13;5.50;;;;;;;27.59;20.78;103011.78;5017297;28;20513;-88
2022/04/16 11:12:19;;;;;;;7.13;6.43;;;;;;;27.71;20.96;103010.66;5024906;28;20106;-91
2022/04/16 11:14:48;;;;;;;9.60;7.05;;;;;;;27.59;21.14;103006.31;5024621;28;20044;-90
2022/04/16 11:17:14;;;;;;;5.80;5.30;;;;;;;28.07;19.99;103011.09;5024767;28;20493;-89
2022/04/16 11:19:39;;;;;;;6.28;5.25;;;;;;;28.65;19.85;103010.34;5022423;28;20053;-89
2022/04/16 11:22:05;;;;;;;5.45;4.90;;;;;;;29.12;19.09;103010.44;5026889;28;20144;-89
2022/04/16 11:24:31;;;;;;;6.45;5.85;;;;;;;28.67;19.61;103022.88;5023826;28;20033;-89
2022/04/16 11:35:12;;;;;;;6.20;5.65;;;;;;;29.78;18.76;103004.88;5028019;28;20048;-88
2022/04/16 11:37:38;;;;;;;5.90;5.30;;;;;;;29.90;18.32;102994.56;5027417;28;20033;-88